createdAt,value
2019-04-30T00:00:47.003Z,9.80
2019-04-30T00:03:39.203Z,9.80
2019-04-30T00:06:08.114Z,9.70
2019-04-30T00:08:39.093Z,9.70
2019-04-30T00:11:10.854Z,9.70
2019-04-30T00:13:38.226Z,9.80
2019-04-30T00:16:07.069Z,9.80
2019-04-30T00:18:39.558Z,9.70
2019-04-30T00:21:09.938Z,9.60
2019-04-30T00:23:37.082Z,9.50
2019-04-30T00:26:10.265Z,9.50
2019-04-30T00:28:39.412Z,9.50
2019-04-30T00:31:07.594Z,9.40
2019-04-30T00:33:36.445Z,9.30
2019-04-30T00:36:05.862Z,9.20
2019-04-30T00:38:37.869Z,9.20
2019-04-30T00:41:06.946Z,9.10
2019-04-30T00:43:37.794Z,9.10
2019-04-30T00:46:06.895Z,8.90
2019-04-30T00:48:35.767Z,8.90
2019-04-30T00:51:07.546Z,8.90
2019-04-30T00:53:35.937Z,8.80
2019-04-30T00:56:05.698Z,8.80
2019-04-30T00:58:35.681Z,8.90
2019-04-30T01:01:18.196Z,8.90
2019-04-30T01:03:51.999Z,8.80
2019-04-30T01:06:26.876Z,8.70
2019-04-30T01:08:51.656Z,8.50
2019-04-30T01:11:20.447Z,8.50
2019-04-30T01:13:50.977Z,8.40
2019-04-30T01:16:23.581Z,8.50
2019-04-30T01:18:50.463Z,8.50
2019-04-30T01:21:19.254Z,8.50
2019-04-30T01:23:54.524Z,8.50
2019-04-30T01:26:22.858Z,8.40
2019-04-30T01:28:53.680Z,8.40
2019-04-30T01:31:21.476Z,8.40
2019-04-30T01:33:50.546Z,8.30
2019-04-30T01:36:19.772Z,8.30
2019-04-30T01:38:52.437Z,8.30
2019-04-30T01:41:22.017Z,8.30
2019-04-30T01:43:50.222Z,8.40
2019-04-30T01:46:21.011Z,8.40
2019-04-30T01:48:51.950Z,8.40
2019-04-30T01:51:21.769Z,8.40
2019-04-30T01:53:50.902Z,8.30
2019-04-30T01:56:29.318Z,8.20
2019-04-30T01:59:09.098Z,8.20
2019-04-30T02:01:40.571Z,8.10
2019-04-30T02:04:10.018Z,8.10
2019-04-30T02:06:39.219Z,8.10
2019-04-30T02:09:09.125Z,8.10
2019-04-30T02:11:38.859Z,8.00
2019-04-30T02:14:09.020Z,8.00
2019-04-30T02:16:39.535Z,8.00
2019-04-30T02:19:09.138Z,8.00
2019-04-30T02:21:38.545Z,8.00
2019-04-30T02:24:08.964Z,7.90
2019-04-30T02:26:38.523Z,7.90
2019-04-30T02:29:09.174Z,8.00
2019-04-30T02:31:40.572Z,8.00
2019-04-30T02:34:30.324Z,8.00
2019-04-30T02:37:21.093Z,8.00
2019-04-30T02:39:50.378Z,8.00
2019-04-30T02:42:20.545Z,7.90
2019-04-30T02:44:51.965Z,7.90
2019-04-30T02:47:22.708Z,7.80
2019-04-30T02:50:09.858Z,7.80
2019-04-30T02:52:29.339Z,7.70
2019-04-30T02:54:59.408Z,7.70
2019-04-30T02:57:29.972Z,7.80
2019-04-30T03:00:20.205Z,7.90
2019-04-30T03:02:50.264Z,7.80
2019-04-30T03:05:20.208Z,7.80
2019-04-30T03:07:52.969Z,7.90
2019-04-30T03:10:20.127Z,7.90
2019-04-30T03:12:49.886Z,7.70
2019-04-30T03:15:22.693Z,7.70
2019-04-30T03:18:00.583Z,7.80
2019-04-30T03:20:40.031Z,7.80
2019-04-30T03:23:09.831Z,7.70
2019-04-30T03:25:40.511Z,7.70
2019-04-30T03:28:09.838Z,7.80
2019-04-30T03:30:41.958Z,7.90
2019-04-30T03:33:12.652Z,7.80
2019-04-30T03:35:46.782Z,7.70
2019-04-30T03:38:10.487Z,7.80
2019-04-30T03:40:40.513Z,7.70
2019-04-30T03:43:10.343Z,7.70
2019-04-30T03:45:40.388Z,7.70
2019-04-30T03:48:10.244Z,7.60
2019-04-30T03:50:52.492Z,7.60
2019-04-30T03:53:10.469Z,7.60
2019-04-30T03:55:40.155Z,7.60
2019-04-30T03:58:09.507Z,7.70
2019-04-30T04:00:50.232Z,7.80
2019-04-30T04:03:20.152Z,7.70
2019-04-30T04:06:09.407Z,7.70
2019-04-30T04:08:53.427Z,7.60
2019-04-30T04:11:26.046Z,7.40
2019-04-30T04:13:54.831Z,7.50
2019-04-30T04:16:23.611Z,7.40
2019-04-30T04:18:52.450Z,7.50
2019-04-30T04:21:21.226Z,7.70
2019-04-30T04:23:50.282Z,7.70
2019-04-30T04:26:20.214Z,7.60
2019-04-30T04:28:49.914Z,7.70
2019-04-30T04:31:19.468Z,7.60
2019-04-30T04:33:52.322Z,7.60
2019-04-30T04:36:20.034Z,7.60
2019-04-30T04:38:50.763Z,7.60
2019-04-30T04:41:19.884Z,7.70
2019-04-30T04:43:50.387Z,7.70
2019-04-30T04:46:20.622Z,7.70
2019-04-30T04:48:49.619Z,7.60
2019-04-30T04:51:31.276Z,7.30
2019-04-30T04:53:50.009Z,7.10
2019-04-30T04:56:19.307Z,7.10
2019-04-30T04:58:50.158Z,7.20
2019-04-30T05:01:20.380Z,7.20
2019-04-30T05:03:49.783Z,7.30
2019-04-30T05:06:21.727Z,7.20
2019-04-30T05:08:49.358Z,7.30
2019-04-30T05:11:19.251Z,7.30
2019-04-30T05:13:49.033Z,7.30
2019-04-30T05:16:19.049Z,7.30
2019-04-30T05:18:48.776Z,7.40
2019-04-30T05:21:18.779Z,7.30
2019-04-30T05:23:49.266Z,7.40
2019-04-30T05:26:19.122Z,7.40
2019-04-30T05:28:52.516Z,7.40
2019-04-30T05:31:20.987Z,7.40
2019-04-30T05:33:49.102Z,7.40
2019-04-30T05:36:19.179Z,7.40
2019-04-30T05:38:48.824Z,7.50
2019-04-30T05:41:19.258Z,7.60
2019-04-30T05:43:48.837Z,7.60
2019-04-30T05:46:19.667Z,7.60
2019-04-30T05:48:49.728Z,7.60
2019-04-30T05:51:21.152Z,7.70
2019-04-30T05:53:49.331Z,7.70
2019-04-30T05:56:19.332Z,7.70
2019-04-30T05:58:49.440Z,7.70
2019-04-30T06:01:19.652Z,7.80
2019-04-30T06:03:48.675Z,8.00
2019-04-30T06:06:19.288Z,8.10
2019-04-30T06:09:14.473Z,8.00
2019-04-30T06:12:11.382Z,8.10
2019-04-30T06:14:51.794Z,8.00
2019-04-30T06:17:21.046Z,7.90
2019-04-30T06:19:51.568Z,7.90
2019-04-30T06:22:20.858Z,7.90
2019-04-30T06:24:49.711Z,7.80
2019-04-30T06:27:19.598Z,7.90
2019-04-30T06:29:49.108Z,8.00
2019-04-30T06:32:18.656Z,8.00
2019-04-30T06:34:49.831Z,8.10
2019-04-30T06:37:19.579Z,8.10
2019-04-30T06:39:49.979Z,8.30
2019-04-30T06:42:19.591Z,8.30
2019-04-30T06:44:49.586Z,8.40
2019-04-30T06:47:22.766Z,8.50
2019-04-30T06:49:49.470Z,8.60
2019-04-30T06:52:23.283Z,8.70
2019-04-30T06:54:49.863Z,8.70
2019-04-30T06:57:19.896Z,8.70
2019-04-30T06:59:51.289Z,8.50
2019-04-30T07:02:19.814Z,8.50
2019-04-30T07:04:49.323Z,8.60
2019-04-30T07:07:22.879Z,8.70
2019-04-30T07:10:00.977Z,8.70
2019-04-30T07:12:42.115Z,8.90
2019-04-30T07:15:13.555Z,9.00
2019-04-30T07:17:41.939Z,9.30
2019-04-30T07:20:10.974Z,9.40
2019-04-30T07:22:48.903Z,9.40
2019-04-30T07:25:10.406Z,9.50
2019-04-30T07:27:40.269Z,9.50
2019-04-30T07:30:10.116Z,9.60
2019-04-30T07:32:39.114Z,9.40
2019-04-30T07:35:09.516Z,9.50
2019-04-30T07:37:39.411Z,9.50
2019-04-30T07:40:09.282Z,9.70
2019-04-30T07:42:44.644Z,9.90
2019-04-30T07:45:09.785Z,10.00
2019-04-30T07:47:39.748Z,10.10
2019-04-30T07:50:10.722Z,10.00
2019-04-30T07:52:58.062Z,10.10
2019-04-30T07:55:10.758Z,10.20
2019-04-30T07:57:40.427Z,10.30
2019-04-30T08:00:10.249Z,10.50
2019-04-30T08:02:44.390Z,10.60
2019-04-30T08:05:23.011Z,10.70
2019-04-30T08:07:51.856Z,10.80
2019-04-30T08:10:20.684Z,10.90
2019-04-30T08:12:51.068Z,11.30
2019-04-30T08:15:20.179Z,11.30
2019-04-30T08:18:02.203Z,11.40
2019-04-30T08:20:19.880Z,11.50
2019-04-30T08:22:49.537Z,11.60
2019-04-30T08:25:19.780Z,11.50
2019-04-30T08:27:49.431Z,11.60
2019-04-30T08:30:26.224Z,11.70
2019-04-30T08:32:49.978Z,11.80
2019-04-30T08:35:19.832Z,12.00
2019-04-30T08:37:49.668Z,12.20
2019-04-30T08:40:19.142Z,12.30
2019-04-30T08:42:49.572Z,12.50
2019-04-30T08:45:19.674Z,12.70
2019-04-30T08:47:49.395Z,12.80
2019-04-30T08:50:20.105Z,12.90
2019-04-30T08:52:50.208Z,13.10
2019-04-30T08:55:22.354Z,13.20
2019-04-30T08:57:50.171Z,13.20
2019-04-30T09:00:20.314Z,13.20
2019-04-30T09:02:49.345Z,13.40
2019-04-30T09:05:28.668Z,13.60
2019-04-30T09:07:59.722Z,13.70
2019-04-30T09:10:29.398Z,13.90
2019-04-30T09:12:59.756Z,13.90
2019-04-30T09:15:29.448Z,13.80
2019-04-30T09:18:03.785Z,13.90
2019-04-30T09:20:29.268Z,13.90
2019-04-30T09:22:59.518Z,13.90
2019-04-30T09:25:29.195Z,13.90
2019-04-30T09:27:58.813Z,13.70
2019-04-30T09:30:29.812Z,13.80
2019-04-30T09:32:59.523Z,14.10
2019-04-30T09:35:31.778Z,14.10
2019-04-30T09:38:01.876Z,14.20
2019-04-30T09:40:32.204Z,14.20
2019-04-30T09:43:00.743Z,14.20
2019-04-30T09:45:29.799Z,14.30
2019-04-30T09:47:59.335Z,14.20
2019-04-30T09:50:29.234Z,14.20
2019-04-30T09:53:00.322Z,14.20
2019-04-30T09:55:29.483Z,14.20
2019-04-30T09:57:58.920Z,14.40
2019-04-30T10:00:29.502Z,14.60
2019-04-30T10:02:59.904Z,14.80
2019-04-30T10:05:29.367Z,15.00
2019-04-30T10:07:59.410Z,15.00
2019-04-30T10:10:34.257Z,15.00
2019-04-30T10:13:03.300Z,15.10
2019-04-30T10:15:39.874Z,15.20
2019-04-30T10:18:09.254Z,15.20
2019-04-30T10:20:42.910Z,15.20
2019-04-30T10:23:11.697Z,15.10
2019-04-30T10:25:41.445Z,15.30
2019-04-30T10:28:10.332Z,15.40
2019-04-30T10:30:39.448Z,15.50
2019-04-30T10:33:10.040Z,15.70
2019-04-30T10:35:39.492Z,15.60
2019-04-30T10:38:09.854Z,15.70
2019-04-30T10:40:39.255Z,15.80
2019-04-30T10:43:08.960Z,15.90
2019-04-30T10:45:39.065Z,15.90
2019-04-30T10:48:08.233Z,15.90
2019-04-30T10:50:40.783Z,15.90
2019-04-30T10:53:09.174Z,15.70
2019-04-30T10:55:38.755Z,15.70
2019-04-30T10:58:08.210Z,15.80
2019-04-30T11:00:39.158Z,15.90
2019-04-30T11:03:19.164Z,15.90
2019-04-30T11:05:41.341Z,16.00
2019-04-30T11:08:10.700Z,15.90
2019-04-30T11:10:39.989Z,15.90
2019-04-30T11:13:09.339Z,16.00
2019-04-30T11:15:39.464Z,16.20
2019-04-30T11:18:08.786Z,16.30
2019-04-30T11:20:39.470Z,16.40
2019-04-30T11:23:14.613Z,16.60
2019-04-30T11:25:41.254Z,16.60
2019-04-30T11:28:10.533Z,16.60
2019-04-30T11:30:40.143Z,16.60
2019-04-30T11:33:09.259Z,16.60
2019-04-30T11:35:39.459Z,16.70
2019-04-30T11:38:08.464Z,16.80
2019-04-30T11:40:39.904Z,16.90
2019-04-30T11:43:08.662Z,17.00
2019-04-30T11:46:19.938Z,17.20
2019-04-30T11:48:49.099Z,17.30
2019-04-30T11:51:19.388Z,17.40
2019-04-30T11:53:49.018Z,17.30
2019-04-30T11:56:18.003Z,17.20
2019-04-30T11:58:48.796Z,17.10
2019-04-30T12:01:19.554Z,17.30
2019-04-30T12:03:49.692Z,17.20
2019-04-30T12:06:19.074Z,17.40
2019-04-30T12:09:10.966Z,17.40
2019-04-30T12:11:40.308Z,17.60
2019-04-30T12:14:09.518Z,17.50
2019-04-30T12:16:39.606Z,17.40
2019-04-30T12:19:09.043Z,17.30
2019-04-30T12:21:38.191Z,17.30
2019-04-30T12:24:07.931Z,17.50
2019-04-30T12:26:38.811Z,17.50
2019-04-30T12:29:08.970Z,17.40
2019-04-30T12:31:38.167Z,17.30
2019-04-30T12:34:07.062Z,17.40
2019-04-30T12:36:35.947Z,17.40
2019-04-30T12:39:06.426Z,17.40
2019-04-30T12:41:35.399Z,17.60
2019-04-30T12:44:04.462Z,17.80
2019-04-30T12:46:33.684Z,17.80
2019-04-30T12:49:10.228Z,17.80
2019-04-30T12:51:58.744Z,17.70
2019-04-30T12:54:39.003Z,17.80
2019-04-30T12:57:12.790Z,17.60
2019-04-30T12:59:42.468Z,17.70
2019-04-30T13:02:11.672Z,17.90
2019-04-30T13:04:40.554Z,17.80
2019-04-30T13:07:10.679Z,17.90
2019-04-30T13:09:40.790Z,18.00
2019-04-30T13:12:11.055Z,18.20
2019-04-30T13:14:51.527Z,18.20
2019-04-30T13:17:11.253Z,18.20
2019-04-30T13:19:40.349Z,18.20
2019-04-30T13:22:11.365Z,18.10
2019-04-30T13:24:40.462Z,18.10
2019-04-30T13:27:09.654Z,18.00
2019-04-30T13:29:46.978Z,17.90
2019-04-30T13:32:27.310Z,18.10
2019-04-30T13:35:01.023Z,18.20
2019-04-30T13:37:39.006Z,18.40
2019-04-30T13:40:16.220Z,18.50
2019-04-30T13:42:48.791Z,18.60
2019-04-30T13:45:18.688Z,18.70
2019-04-30T13:47:48.894Z,18.80
2019-04-30T13:50:19.721Z,18.80
2019-04-30T13:52:48.906Z,18.70
2019-04-30T13:55:19.221Z,18.80
2019-04-30T13:57:48.516Z,18.70
2019-04-30T14:00:22.258Z,18.80
2019-04-30T14:03:00.601Z,18.70
2019-04-30T14:05:28.026Z,18.70
2019-04-30T14:08:13.452Z,18.80
2019-04-30T14:10:44.360Z,18.80
2019-04-30T14:13:13.686Z,18.70
2019-04-30T14:15:43.090Z,18.80
2019-04-30T14:18:12.223Z,19.00
2019-04-30T14:20:41.098Z,19.10
2019-04-30T14:23:10.713Z,19.00
2019-04-30T14:25:39.722Z,19.00
2019-04-30T14:28:09.422Z,18.90
2019-04-30T14:30:39.323Z,19.00
2019-04-30T14:33:09.555Z,19.10
2019-04-30T14:35:38.826Z,19.10
2019-04-30T14:38:09.052Z,19.30
2019-04-30T14:40:40.474Z,19.40
2019-04-30T14:43:19.737Z,19.30
2019-04-30T14:46:06.071Z,19.20
2019-04-30T14:48:41.387Z,19.20
2019-04-30T14:51:11.075Z,19.20
2019-04-30T14:53:48.873Z,19.20
2019-04-30T14:56:32.279Z,19.20
2019-04-30T14:59:18.791Z,19.10
2019-04-30T15:01:59.153Z,19.10
2019-04-30T15:04:29.090Z,19.20
2019-04-30T15:06:58.813Z,19.00
2019-04-30T15:09:28.003Z,18.90
2019-04-30T15:11:58.610Z,19.00
2019-04-30T15:14:28.134Z,19.00
2019-04-30T15:16:57.713Z,19.00
2019-04-30T15:19:26.937Z,19.00
2019-04-30T15:21:55.791Z,18.80
2019-04-30T15:24:31.370Z,18.90
2019-04-30T15:27:00.300Z,19.00
2019-04-30T15:29:29.196Z,19.00
2019-04-30T15:31:59.303Z,18.90
2019-04-30T15:34:29.319Z,18.70
2019-04-30T15:36:59.239Z,18.60
2019-04-30T15:39:39.491Z,18.50
2019-04-30T15:42:08.939Z,18.50
2019-04-30T15:44:45.255Z,18.50
2019-04-30T15:47:09.328Z,18.60
2019-04-30T15:49:38.430Z,18.70
2019-04-30T15:52:10.621Z,18.80
2019-04-30T15:54:39.281Z,18.70
2019-04-30T15:57:09.001Z,18.70
2019-04-30T15:59:40.377Z,18.50
2019-04-30T16:02:28.726Z,18.50
2019-04-30T16:05:16.603Z,18.50
2019-04-30T16:07:58.758Z,18.50
2019-04-30T16:10:52.879Z,18.50
2019-04-30T16:13:24.208Z,18.60
2019-04-30T16:15:53.324Z,18.70
2019-04-30T16:18:22.723Z,18.80
2019-04-30T16:20:51.759Z,18.90
2019-04-30T16:23:20.534Z,18.80
2019-04-30T16:25:49.324Z,18.80
2019-04-30T16:28:19.583Z,18.70
2019-04-30T16:30:48.580Z,18.70
2019-04-30T16:33:19.365Z,18.90
2019-04-30T16:35:50.497Z,18.80
2019-04-30T16:38:20.897Z,18.80
2019-04-30T16:40:49.706Z,18.70
2019-04-30T16:43:20.336Z,18.70
2019-04-30T16:45:49.594Z,18.70
2019-04-30T16:48:19.328Z,18.60
2019-04-30T16:50:51.119Z,18.60
2019-04-30T16:53:19.391Z,18.40
2019-04-30T16:55:50.527Z,18.40
2019-04-30T16:58:19.728Z,18.30
2019-04-30T17:00:49.498Z,18.40
2019-04-30T17:03:34.546Z,18.40
2019-04-30T17:06:12.802Z,18.40
2019-04-30T17:08:49.448Z,18.40
2019-04-30T17:11:38.662Z,18.30
2019-04-30T17:14:11.066Z,18.30
2019-04-30T17:16:40.182Z,18.40
2019-04-30T17:19:09.307Z,18.50
2019-04-30T17:21:38.114Z,18.40
2019-04-30T17:24:08.804Z,18.40
2019-04-30T17:26:39.195Z,18.40
2019-04-30T17:29:09.628Z,18.30
2019-04-30T17:31:38.795Z,18.10
2019-04-30T17:34:07.958Z,17.90
2019-04-30T17:36:36.758Z,18.10
2019-04-30T17:39:10.263Z,17.90
2019-04-30T17:41:39.376Z,17.90
2019-04-30T17:44:08.855Z,18.00
2019-04-30T17:46:38.563Z,18.00
2019-04-30T17:49:07.421Z,18.00
2019-04-30T17:51:36.210Z,17.90
2019-04-30T17:54:14.775Z,18.00
2019-04-30T17:56:44.754Z,18.00
2019-04-30T17:59:13.941Z,17.90
2019-04-30T18:01:47.063Z,17.80
2019-04-30T18:04:16.194Z,17.80
2019-04-30T18:06:44.982Z,17.70
2019-04-30T18:09:14.351Z,17.80
2019-04-30T18:11:43.453Z,17.90
2019-04-30T18:14:12.754Z,17.70
2019-04-30T18:16:41.875Z,17.70
2019-04-30T18:19:24.454Z,17.70
2019-04-30T18:21:59.676Z,17.60
2019-04-30T18:24:37.022Z,17.60
2019-04-30T18:27:45.356Z,17.60
2019-04-30T18:30:07.268Z,17.50
2019-04-30T18:32:36.144Z,17.30
2019-04-30T18:35:05.447Z,17.10
2019-04-30T18:37:34.516Z,17.20
2019-04-30T18:40:03.572Z,17.20
2019-04-30T18:42:32.606Z,17.30
2019-04-30T18:45:01.721Z,17.30
2019-04-30T18:47:30.517Z,17.30
2019-04-30T18:49:59.940Z,17.20
2019-04-30T18:52:28.775Z,17.20
2019-04-30T18:54:59.478Z,17.20
2019-04-30T18:57:28.464Z,17.20
2019-04-30T18:59:59.157Z,17.00
2019-04-30T19:02:27.874Z,16.90
2019-04-30T19:04:57.015Z,16.90
2019-04-30T19:07:31.250Z,17.00
2019-04-30T19:10:22.413Z,16.80
2019-04-30T19:13:19.594Z,16.80
2019-04-30T19:16:19.803Z,16.70
2019-04-30T19:19:00.990Z,16.80
2019-04-30T19:21:30.195Z,16.70
2019-04-30T19:23:59.335Z,16.70
2019-04-30T19:26:29.270Z,16.70
2019-04-30T19:28:58.334Z,16.70
2019-04-30T19:31:29.490Z,16.70
2019-04-30T19:33:58.886Z,16.40
2019-04-30T19:36:37.361Z,16.50
2019-04-30T19:39:02.470Z,16.40
2019-04-30T19:41:31.258Z,16.50
2019-04-30T19:44:00.128Z,16.40
2019-04-30T19:46:29.487Z,16.40
2019-04-30T19:49:00.086Z,16.30
2019-04-30T19:51:29.666Z,16.30
2019-04-30T19:53:59.873Z,16.20
2019-04-30T19:56:30.305Z,16.20
2019-04-30T19:59:04.803Z,16.10
2019-04-30T20:01:30.475Z,16.00
2019-04-30T20:03:59.548Z,15.90
2019-04-30T20:06:28.757Z,15.80
2019-04-30T20:08:59.041Z,15.90
2019-04-30T20:11:28.158Z,16.00
2019-04-30T20:13:56.934Z,15.90
2019-04-30T20:16:25.973Z,15.80
2019-04-30T20:18:54.755Z,15.60
2019-04-30T20:21:28.681Z,15.50
2019-04-30T20:23:55.511Z,15.40
2019-04-30T20:26:24.698Z,15.40
2019-04-30T20:28:53.759Z,15.30
2019-04-30T20:31:22.534Z,15.20
2019-04-30T20:33:53.669Z,15.10
2019-04-30T20:36:22.090Z,14.90
2019-04-30T20:39:15.942Z,15.00
2019-04-30T20:41:45.210Z,14.90
2019-04-30T20:44:14.112Z,14.90
2019-04-30T20:46:42.885Z,14.80
2019-04-30T20:49:11.671Z,14.60
2019-04-30T20:51:52.716Z,14.70
2019-04-30T20:54:11.279Z,14.70
2019-04-30T20:56:40.080Z,14.80
2019-04-30T20:59:10.791Z,14.80
2019-04-30T21:01:39.558Z,14.70
2019-04-30T21:04:08.435Z,14.70
2019-04-30T21:06:37.205Z,14.80
2019-04-30T21:09:06.973Z,14.90
2019-04-30T21:11:35.748Z,14.70
2019-04-30T21:14:04.782Z,14.60
2019-04-30T21:16:33.559Z,14.60
2019-04-30T21:19:02.442Z,14.60
2019-04-30T21:21:31.222Z,14.60
2019-04-30T21:23:59.996Z,14.70
2019-04-30T21:26:29.106Z,14.80
2019-04-30T21:29:10.684Z,14.70
2019-04-30T21:31:40.498Z,14.70
2019-04-30T21:34:29.338Z,14.60
2019-04-30T21:36:59.645Z,14.60
2019-04-30T21:39:29.095Z,14.60
2019-04-30T21:41:59.465Z,14.60
2019-04-30T21:44:29.098Z,14.60
2019-04-30T21:46:58.318Z,14.60
2019-04-30T21:49:27.438Z,14.60
2019-04-30T21:51:56.220Z,14.60
2019-04-30T21:54:25.015Z,14.60
2019-04-30T21:56:54.051Z,14.60
2019-04-30T21:59:24.422Z,14.70
2019-04-30T22:01:53.927Z,14.70
2019-04-30T22:04:22.710Z,14.70
2019-04-30T22:06:51.902Z,14.70
2019-04-30T22:09:21.235Z,14.70
2019-04-30T22:11:50.126Z,14.60
2019-04-30T22:14:19.396Z,14.70
2019-04-30T22:16:49.412Z,14.60
2019-04-30T22:19:18.385Z,14.60
2019-04-30T22:21:49.483Z,14.50
2019-04-30T22:24:18.036Z,14.60
2019-04-30T22:26:46.818Z,14.50
2019-04-30T22:29:15.597Z,14.50
2019-04-30T22:31:44.704Z,14.50
2019-04-30T22:34:13.918Z,14.60
2019-04-30T22:36:46.250Z,14.60
2019-04-30T22:39:52.552Z,14.50
2019-04-30T22:42:39.981Z,14.40
2019-04-30T22:45:41.031Z,14.40
2019-04-30T22:48:10.110Z,14.50
2019-04-30T22:50:38.893Z,14.60
2019-04-30T22:53:07.674Z,14.60
2019-04-30T22:55:36.574Z,14.60
2019-04-30T22:58:05.387Z,14.60
2019-04-30T23:00:45.310Z,14.60
2019-04-30T23:03:30.422Z,14.60
2019-04-30T23:05:59.772Z,14.50
2019-04-30T23:08:28.566Z,14.40
2019-04-30T23:10:57.860Z,14.50
2019-04-30T23:13:26.954Z,14.50
2019-04-30T23:15:55.955Z,14.60
2019-04-30T23:18:24.800Z,14.60
2019-04-30T23:20:53.582Z,14.50
2019-04-30T23:23:22.370Z,14.40
2019-04-30T23:25:51.398Z,14.40
2019-04-30T23:28:20.811Z,14.50
2019-04-30T23:30:49.610Z,14.40
2019-04-30T23:33:18.390Z,14.40
2019-04-30T23:35:47.206Z,14.40
2019-04-30T23:38:15.991Z,14.30
2019-04-30T23:40:50.501Z,14.10
2019-04-30T23:43:20.048Z,14.10
2019-04-30T23:45:49.102Z,14.10
2019-04-30T23:48:18.285Z,14.10
2019-04-30T23:50:47.374Z,14.20
2019-04-30T23:53:16.470Z,14.30
2019-04-30T23:55:45.333Z,14.30
2019-04-30T23:58:14.378Z,14.30
